createdAt,value
2023-03-21T00:01:04.019Z,8.50
2023-03-21T00:03:35.683Z,8.54
2023-03-21T00:06:11.159Z,8.58
2023-03-21T00:08:42.815Z,8.59
2023-03-21T00:11:14.432Z,8.56
2023-03-21T00:13:46.220Z,8.58
2023-03-21T00:16:25.014Z,8.60
2023-03-21T00:19:06.512Z,8.57
2023-03-21T00:21:51.805Z,8.54
2023-03-21T00:24:27.162Z,8.53
2023-03-21T00:27:15.833Z,8.52
2023-03-21T00:29:51.734Z,8.52
2023-03-21T00:32:23.258Z,8.52
2023-03-21T00:35:16.471Z,8.57
2023-03-21T00:37:47.824Z,8.56
2023-03-21T00:40:28.045Z,8.58
2023-03-21T00:43:04.421Z,8.58
2023-03-21T00:45:37.406Z,8.55
2023-03-21T00:48:10.118Z,8.49
2023-03-21T00:50:47.781Z,8.35
2023-03-21T00:53:19.746Z,8.31
2023-03-21T00:55:51.414Z,8.29
2023-03-21T00:58:22.957Z,8.31
2023-03-21T01:00:54.785Z,8.40
2023-03-21T01:03:26.705Z,8.39
2023-03-21T01:06:07.557Z,8.41
2023-03-21T01:08:51.856Z,8.48
2023-03-21T01:11:28.512Z,8.52
2023-03-21T01:14:18.691Z,8.55
2023-03-21T01:16:53.693Z,8.55
2023-03-21T01:19:44.231Z,8.54
2023-03-21T01:22:21.286Z,8.60
2023-03-21T01:24:58.556Z,8.53
2023-03-21T01:27:34.722Z,8.62
2023-03-21T01:30:17.380Z,8.65
2023-03-21T01:32:51.236Z,8.68
2023-03-21T01:35:22.876Z,8.67
2023-03-21T01:37:54.602Z,8.68
2023-03-21T01:40:27.058Z,8.66
2023-03-21T01:42:58.693Z,8.64
2023-03-21T01:46:08.150Z,8.57
2023-03-21T01:48:42.789Z,8.57
2023-03-21T01:51:14.401Z,8.55
2023-03-21T01:53:47.312Z,8.60
2023-03-21T01:56:28.063Z,8.54
2023-03-21T01:59:08.169Z,8.57
2023-03-21T02:01:42.313Z,8.54
2023-03-21T02:04:14.495Z,8.56
2023-03-21T02:06:54.595Z,8.62
2023-03-21T02:09:31.985Z,8.65
2023-03-21T02:12:04.196Z,8.64
2023-03-21T02:14:37.711Z,8.63
2023-03-21T02:17:15.420Z,8.65
2023-03-21T02:20:09.046Z,8.60
2023-03-21T02:22:51.270Z,8.49
2023-03-21T02:25:50.395Z,8.46
2023-03-21T02:28:27.516Z,8.46
2023-03-21T02:31:14.013Z,8.49
2023-03-21T02:34:16.725Z,8.52
2023-03-21T02:37:07.321Z,8.50
2023-03-21T02:40:11.697Z,8.44
2023-03-21T02:42:51.701Z,8.50
2023-03-21T02:45:49.777Z,8.34
2023-03-21T02:48:50.354Z,8.41
2023-03-21T02:51:25.944Z,8.43
2023-03-21T02:54:45.336Z,8.41
2023-03-21T02:57:07.628Z,8.43
2023-03-21T02:59:51.791Z,8.41
2023-03-21T03:02:27.786Z,8.44
2023-03-21T03:05:00.622Z,8.42
2023-03-21T03:07:42.692Z,8.44
2023-03-21T03:10:40.793Z,8.40
2023-03-21T03:13:32.324Z,8.40
2023-03-21T03:16:30.683Z,8.36
2023-03-21T03:19:07.033Z,8.33
2023-03-21T03:21:48.750Z,8.37
2023-03-21T03:24:26.033Z,8.37
2023-03-21T03:27:04.284Z,8.29
2023-03-21T03:29:40.017Z,8.28
2023-03-21T03:32:18.143Z,8.39
2023-03-21T03:34:56.358Z,8.42
2023-03-21T03:37:33.174Z,8.40
2023-03-21T03:40:26.146Z,8.43
2023-03-21T03:43:07.306Z,8.36
2023-03-21T03:45:47.983Z,8.43
2023-03-21T03:48:22.335Z,8.41
2023-03-21T03:51:21.120Z,8.40
2023-03-21T03:54:07.115Z,8.31
2023-03-21T03:56:39.627Z,8.24
2023-03-21T03:59:11.265Z,8.28
2023-03-21T04:01:42.818Z,8.31
2023-03-21T04:04:17.030Z,8.29
2023-03-21T04:06:51.712Z,8.27
2023-03-21T04:09:37.241Z,8.33
2023-03-21T04:12:14.468Z,8.30
2023-03-21T04:14:47.492Z,8.27
2023-03-21T04:17:19.274Z,8.31
2023-03-21T04:19:53.807Z,8.32
2023-03-21T04:22:29.246Z,8.22
2023-03-21T04:25:05.331Z,8.26
2023-03-21T04:27:37.255Z,8.29
2023-03-21T04:30:12.152Z,8.29
2023-03-21T04:32:43.698Z,8.29
2023-03-21T04:35:15.377Z,8.24
2023-03-21T04:37:47.012Z,8.28
2023-03-21T04:40:18.963Z,8.29
2023-03-21T04:42:50.864Z,8.27
2023-03-21T04:45:22.418Z,8.26
2023-03-21T04:47:53.926Z,8.29
2023-03-21T04:50:25.587Z,8.26
2023-03-21T04:52:57.112Z,8.24
2023-03-21T04:55:31.734Z,8.29
2023-03-21T04:58:04.388Z,8.29
2023-03-21T05:00:39.157Z,8.21
2023-03-21T05:03:10.708Z,8.28
2023-03-21T05:05:42.280Z,8.22
2023-03-21T05:08:14.173Z,8.23
2023-03-21T05:10:45.798Z,8.26
2023-03-21T05:13:17.307Z,8.30
2023-03-21T05:15:50.429Z,8.31
2023-03-21T05:18:24.974Z,8.29
2023-03-21T05:20:57.346Z,8.33
2023-03-21T05:23:31.579Z,8.35
2023-03-21T05:26:03.151Z,8.35
2023-03-21T05:28:36.798Z,8.31
2023-03-21T05:31:08.859Z,8.24
2023-03-21T05:33:40.461Z,8.23
2023-03-21T05:36:12.873Z,8.28
2023-03-21T05:38:46.325Z,8.24
2023-03-21T05:41:19.365Z,8.27
2023-03-21T05:43:50.967Z,8.29
2023-03-21T05:46:22.592Z,8.33
2023-03-21T05:48:54.249Z,8.35
2023-03-21T05:51:25.833Z,8.35
2023-03-21T05:53:57.390Z,8.35
2023-03-21T05:56:28.908Z,8.28
2023-03-21T05:59:00.665Z,8.30
2023-03-21T06:01:32.172Z,8.32
2023-03-21T06:04:03.949Z,8.37
2023-03-21T06:06:35.501Z,8.46
2023-03-21T06:09:07.156Z,8.51
2023-03-21T06:11:42.185Z,8.54
2023-03-21T06:14:14.010Z,8.60
2023-03-21T06:16:45.790Z,8.66
2023-03-21T06:19:17.473Z,8.69
2023-03-21T06:21:49.512Z,8.70
2023-03-21T06:24:21.733Z,8.68
2023-03-21T06:26:53.282Z,8.65
2023-03-21T06:29:24.884Z,8.71
2023-03-21T06:31:56.425Z,8.75
2023-03-21T06:34:28.225Z,8.80
2023-03-21T06:36:59.744Z,8.85
2023-03-21T06:39:33.072Z,8.88
2023-03-21T06:42:04.598Z,8.90
2023-03-21T06:44:36.295Z,8.97
2023-03-21T06:47:07.959Z,8.93
2023-03-21T06:49:41.019Z,8.93
2023-03-21T06:52:12.800Z,8.94
2023-03-21T06:54:44.368Z,9.00
2023-03-21T06:57:16.162Z,9.05
2023-03-21T06:59:47.734Z,9.09
2023-03-21T07:02:19.312Z,9.15
2023-03-21T07:04:51.011Z,9.22
2023-03-21T07:07:26.334Z,9.28
2023-03-21T07:09:57.905Z,9.37
2023-03-21T07:12:29.414Z,9.44
2023-03-21T07:15:02.101Z,9.46
2023-03-21T07:17:34.176Z,9.50
2023-03-21T07:20:08.305Z,9.44
2023-03-21T07:22:40.876Z,9.47
2023-03-21T07:25:12.596Z,9.61
2023-03-21T07:27:44.141Z,9.58
2023-03-21T07:30:15.969Z,9.67
2023-03-21T07:32:47.647Z,9.76
2023-03-21T07:35:19.749Z,9.73
2023-03-21T07:37:51.578Z,9.80
2023-03-21T07:40:23.230Z,9.85
2023-03-21T07:42:54.769Z,9.85
2023-03-21T07:45:27.384Z,9.63
2023-03-21T07:47:58.988Z,9.73
2023-03-21T07:50:30.934Z,9.82
2023-03-21T07:53:02.473Z,9.85
2023-03-21T07:55:35.084Z,9.98
2023-03-21T07:58:06.679Z,10.05
2023-03-21T08:00:38.326Z,10.11
2023-03-21T08:03:10.167Z,10.19
2023-03-21T08:05:42.233Z,10.23
2023-03-21T08:08:14.093Z,10.25
2023-03-21T08:10:45.936Z,10.35
2023-03-21T08:13:17.550Z,10.24
2023-03-21T08:15:49.358Z,10.40
2023-03-21T08:18:21.118Z,10.49
2023-03-21T08:20:57.115Z,10.52
2023-03-21T08:23:30.522Z,10.61
2023-03-21T08:26:02.659Z,10.74
2023-03-21T08:28:34.246Z,10.78
2023-03-21T08:31:10.633Z,10.76
2023-03-21T08:33:42.248Z,10.88
2023-03-21T08:36:13.831Z,10.97
2023-03-21T08:38:48.445Z,11.04
2023-03-21T08:41:22.144Z,11.15
2023-03-21T08:43:53.858Z,11.29
2023-03-21T08:46:25.768Z,11.33
2023-03-21T08:48:57.356Z,11.39
2023-03-21T08:51:28.988Z,11.39
2023-03-21T08:54:00.620Z,11.48
2023-03-21T08:56:32.521Z,11.59
2023-03-21T08:59:04.552Z,11.48
2023-03-21T09:01:37.192Z,11.61
2023-03-21T09:04:11.008Z,11.75
2023-03-21T09:06:45.776Z,11.88
2023-03-21T09:09:17.972Z,12.03
2023-03-21T09:11:51.512Z,12.17
2023-03-21T09:14:28.774Z,12.24
2023-03-21T09:17:01.358Z,12.28
2023-03-21T09:19:33.144Z,12.36
2023-03-21T09:22:04.723Z,12.42
2023-03-21T09:24:36.399Z,12.47
2023-03-21T09:27:08.165Z,12.35
2023-03-21T09:29:43.399Z,12.57
2023-03-21T09:32:15.352Z,12.65
2023-03-21T09:34:48.542Z,12.63
2023-03-21T09:37:21.208Z,12.82
2023-03-21T09:39:52.761Z,12.89
2023-03-21T09:42:39.469Z,13.02
2023-03-21T09:45:11.434Z,13.10
2023-03-21T09:47:52.628Z,13.04
2023-03-21T09:50:31.616Z,13.29
2023-03-21T09:53:27.171Z,13.37
2023-03-21T09:56:01.411Z,13.38
2023-03-21T09:58:40.105Z,13.53
2023-03-21T10:01:22.307Z,13.71
2023-03-21T10:03:56.643Z,13.86
2023-03-21T10:06:30.618Z,13.95
2023-03-21T10:09:06.677Z,14.06
2023-03-21T10:11:44.684Z,14.14
2023-03-21T10:14:23.636Z,14.16
2023-03-21T10:17:04.290Z,14.12
2023-03-21T10:19:36.304Z,13.87
2023-03-21T10:22:09.252Z,13.47
2023-03-21T10:24:41.169Z,13.51
2023-03-21T10:27:13.815Z,13.36
2023-03-21T10:29:46.454Z,13.58
2023-03-21T10:32:18.415Z,13.60
2023-03-21T10:37:35.418Z,13.83
2023-03-21T10:40:08.850Z,14.11
2023-03-21T10:42:40.414Z,14.30
2023-03-21T10:45:18.744Z,14.43
2023-03-21T10:47:51.611Z,14.60
2023-03-21T10:50:29.726Z,14.79
2023-03-21T10:53:01.681Z,14.98
2023-03-21T10:55:34.868Z,15.14
2023-03-21T10:58:10.909Z,15.46
2023-03-21T11:00:43.446Z,15.76
2023-03-21T11:03:31.431Z,15.45
2023-03-21T11:06:11.377Z,15.42
2023-03-21T11:08:53.878Z,15.62
2023-03-21T11:11:27.695Z,15.36
2023-03-21T11:14:06.735Z,15.72
2023-03-21T11:16:43.838Z,15.84
2023-03-21T11:19:26.653Z,16.23
2023-03-21T11:21:59.821Z,16.36
2023-03-21T11:24:33.877Z,16.40
2023-03-21T11:27:07.682Z,15.51
2023-03-21T11:29:44.233Z,15.84
2023-03-21T11:32:35.048Z,15.62
2023-03-21T11:35:19.771Z,15.34
2023-03-21T11:37:53.561Z,15.75
2023-03-21T11:40:26.394Z,15.94
2023-03-21T11:42:59.173Z,16.00
2023-03-21T11:45:33.101Z,16.19
2023-03-21T11:48:14.816Z,16.24
2023-03-21T11:50:50.185Z,15.66
2023-03-21T11:53:27.221Z,16.17
2023-03-21T11:56:13.965Z,16.49
2023-03-21T11:59:16.190Z,15.80
2023-03-21T12:02:21.526Z,15.63
2023-03-21T12:05:04.482Z,15.90
2023-03-21T12:07:39.037Z,15.82
2023-03-21T12:10:27.429Z,16.14
2023-03-21T12:13:20.714Z,16.23
2023-03-21T12:16:04.158Z,16.34
2023-03-21T12:18:54.023Z,16.68
2023-03-21T12:21:25.817Z,16.47
2023-03-21T12:24:09.015Z,16.42
2023-03-21T12:26:51.645Z,16.92
2023-03-21T12:29:41.890Z,16.81
2023-03-21T12:32:35.699Z,17.18
2023-03-21T12:35:46.013Z,17.58
2023-03-21T12:38:39.278Z,17.55
2023-03-21T12:41:31.622Z,17.90
2023-03-21T12:44:08.697Z,18.11
2023-03-21T12:46:49.013Z,18.23
2023-03-21T12:49:43.638Z,17.19
2023-03-21T12:52:30.671Z,18.10
2023-03-21T12:55:18.704Z,18.09
2023-03-21T12:58:22.961Z,17.68
2023-03-21T13:00:58.580Z,17.48
2023-03-21T13:03:52.257Z,17.71
2023-03-21T13:06:26.554Z,17.86
2023-03-21T13:09:11.229Z,18.40
2023-03-21T13:11:44.291Z,19.02
2023-03-21T13:14:23.833Z,19.73
2023-03-21T13:17:04.546Z,20.00
2023-03-21T13:19:46.736Z,19.61
2023-03-21T13:22:26.907Z,19.88
2023-03-21T13:25:06.884Z,19.36
2023-03-21T13:27:41.467Z,19.91
2023-03-21T13:30:30.655Z,20.03
2023-03-21T13:33:14.142Z,19.75
2023-03-21T13:35:46.067Z,21.80
2023-03-21T13:38:21.938Z,23.72
2023-03-21T13:41:08.907Z,24.72
2023-03-21T13:43:40.406Z,26.00
2023-03-21T13:46:52.300Z,27.38
2023-03-21T13:49:38.254Z,27.01
2023-03-21T13:52:09.788Z,28.66
2023-03-21T13:54:51.092Z,28.47
2023-03-21T13:57:38.784Z,28.32
2023-03-21T14:00:21.685Z,28.36
2023-03-21T14:03:13.975Z,27.80
2023-03-21T14:05:50.155Z,28.65
2023-03-21T14:08:34.767Z,29.21
2023-03-21T14:11:15.012Z,29.34
2023-03-21T14:13:51.187Z,29.59
2023-03-21T14:16:28.376Z,29.97
2023-03-21T14:19:06.176Z,29.96
2023-03-21T14:21:38.257Z,29.59
2023-03-21T14:24:14.202Z,29.76
2023-03-21T14:26:51.789Z,29.33
2023-03-21T14:29:31.837Z,28.26
2023-03-21T14:32:05.745Z,28.52
2023-03-21T14:34:37.681Z,26.78
2023-03-21T14:37:11.249Z,24.91
2023-03-21T14:39:42.826Z,23.54
2023-03-21T14:42:15.647Z,24.82
2023-03-21T14:44:55.412Z,25.76
2023-03-21T14:47:29.829Z,25.33
2023-03-21T14:50:01.500Z,22.83
2023-03-21T14:52:34.562Z,22.06
2023-03-21T14:55:16.425Z,20.83
2023-03-21T14:57:48.646Z,20.54
2023-03-21T15:00:27.694Z,19.76
2023-03-21T15:03:03.195Z,19.22
2023-03-21T15:05:37.485Z,18.78
2023-03-21T15:08:14.669Z,19.00
2023-03-21T15:11:12.475Z,18.84
2023-03-21T15:13:51.272Z,19.40
2023-03-21T15:16:23.528Z,19.06
2023-03-21T15:18:55.919Z,18.59
2023-03-21T15:21:31.580Z,18.26
2023-03-21T15:24:13.548Z,18.10
2023-03-21T15:26:47.666Z,17.90
2023-03-21T15:29:19.352Z,17.32
2023-03-21T15:31:51.027Z,17.73
2023-03-21T15:34:27.869Z,17.26
2023-03-21T15:37:06.899Z,17.51
2023-03-21T15:39:38.464Z,17.48
2023-03-21T15:42:29.851Z,17.23
2023-03-21T15:45:31.308Z,17.44
2023-03-21T15:48:09.080Z,17.50
2023-03-21T15:50:47.375Z,17.24
2023-03-21T15:53:20.238Z,16.94
2023-03-21T15:56:01.821Z,16.77
2023-03-21T15:58:41.896Z,16.62
2023-03-21T16:01:18.081Z,16.45
2023-03-21T16:04:02.804Z,16.50
2023-03-21T16:06:37.189Z,16.43
2023-03-21T16:09:08.723Z,16.35
2023-03-21T16:11:48.326Z,16.28
2023-03-21T16:14:21.028Z,15.88
2023-03-21T16:16:52.909Z,15.92
2023-03-21T16:19:24.911Z,15.58
2023-03-21T16:21:56.517Z,15.55
2023-03-21T16:24:28.022Z,15.33
2023-03-21T16:27:00.544Z,15.33
2023-03-21T16:29:32.045Z,15.27
2023-03-21T16:32:06.290Z,15.14
2023-03-21T16:34:37.889Z,15.02
2023-03-21T16:37:15.852Z,15.04
2023-03-21T16:39:47.751Z,15.06
2023-03-21T16:42:19.269Z,15.10
2023-03-21T16:44:50.918Z,14.98
2023-03-21T16:47:25.641Z,15.10
2023-03-21T16:49:57.273Z,15.06
2023-03-21T16:52:28.773Z,14.98
2023-03-21T16:55:00.324Z,14.92
2023-03-21T16:57:31.890Z,14.80
2023-03-21T17:00:07.411Z,14.82
2023-03-21T17:02:38.963Z,14.80
2023-03-21T17:05:11.647Z,14.66
2023-03-21T17:07:44.040Z,14.64
2023-03-21T17:10:29.356Z,14.66
2023-03-21T17:13:00.970Z,14.65
2023-03-21T17:15:32.554Z,14.65
2023-03-21T17:18:04.533Z,14.61
2023-03-21T17:20:38.266Z,14.55
2023-03-21T17:23:10.914Z,14.50
2023-03-21T17:25:42.488Z,14.46
2023-03-21T17:28:14.152Z,14.40
2023-03-21T17:33:41.819Z,14.30
2023-03-21T17:36:24.498Z,14.24
2023-03-21T17:38:56.479Z,14.22
2023-03-21T17:41:28.072Z,14.16
2023-03-21T17:43:59.604Z,14.08
2023-03-21T17:46:38.667Z,14.06
2023-03-21T17:49:13.342Z,14.01
2023-03-21T17:51:46.900Z,13.97
2023-03-21T17:54:18.577Z,13.91
2023-03-21T17:56:50.519Z,13.83
2023-03-21T17:59:22.540Z,13.78
2023-03-21T18:01:54.099Z,13.74
2023-03-21T18:04:27.070Z,13.68
2023-03-21T18:07:01.120Z,13.67
2023-03-21T18:09:33.452Z,13.58
2023-03-21T18:12:05.226Z,13.60
2023-03-21T18:14:40.548Z,13.54
2023-03-21T18:17:12.410Z,13.51
2023-03-21T18:19:45.125Z,13.46
2023-03-21T18:22:18.173Z,13.43
2023-03-21T18:24:49.932Z,13.42
2023-03-21T18:27:21.596Z,13.42
2023-03-21T18:30:25.804Z,13.36
2023-03-21T18:32:45.837Z,13.36
2023-03-21T18:35:22.441Z,13.33
2023-03-21T18:37:55.196Z,13.31
2023-03-21T18:40:27.569Z,13.30
2023-03-21T18:43:49.888Z,13.28
2023-03-21T18:45:53.028Z,13.23
2023-03-21T18:48:24.779Z,13.24
2023-03-21T18:50:56.778Z,13.23
2023-03-21T18:53:28.801Z,13.24
2023-03-21T18:56:00.779Z,13.18
2023-03-21T18:58:32.830Z,13.18
2023-03-21T19:01:05.184Z,13.17
2023-03-21T19:03:37.754Z,13.14
2023-03-21T19:06:11.694Z,13.14
2023-03-21T19:08:44.236Z,13.09
2023-03-21T19:11:19.171Z,13.06
2023-03-21T19:13:53.099Z,13.08
2023-03-21T19:16:31.525Z,13.00
2023-03-21T19:19:09.423Z,13.00
2023-03-21T19:21:41.326Z,12.96
2023-03-21T19:24:30.428Z,12.94
2023-03-21T19:27:02.012Z,12.91
2023-03-21T19:29:34.219Z,12.88
2023-03-21T19:32:05.866Z,12.85
2023-03-21T19:34:38.721Z,12.82
2023-03-21T19:37:10.921Z,12.73
2023-03-21T19:39:42.669Z,12.73
2023-03-21T19:42:17.213Z,12.71
2023-03-21T19:44:49.294Z,12.70
2023-03-21T19:47:20.946Z,12.63
2023-03-21T19:52:46.144Z,12.52
2023-03-21T19:55:18.113Z,12.48
2023-03-21T19:57:49.897Z,12.45
2023-03-21T20:00:21.669Z,12.43
2023-03-21T20:02:53.704Z,12.38
2023-03-21T20:05:25.800Z,12.33
2023-03-21T20:07:57.472Z,12.26
2023-03-21T20:10:29.936Z,12.19
2023-03-21T20:13:01.488Z,12.13
2023-03-21T20:15:44.766Z,12.13
2023-03-21T20:18:21.445Z,12.09
2023-03-21T20:20:53.407Z,12.03
2023-03-21T20:23:25.122Z,12.00
2023-03-21T20:25:56.789Z,11.96
2023-03-21T20:28:29.115Z,11.93
2023-03-21T20:31:02.015Z,11.86
2023-03-21T20:33:33.665Z,11.80
2023-03-21T20:36:37.682Z,11.78
2023-03-21T20:38:59.218Z,11.67
2023-03-21T20:41:30.982Z,11.64
2023-03-21T20:46:54.874Z,11.56
2023-03-21T20:49:26.804Z,11.49
2023-03-21T20:52:51.828Z,11.51
2023-03-21T20:54:51.906Z,11.47
2023-03-21T20:57:27.105Z,11.47
2023-03-21T20:59:58.873Z,11.42
2023-03-21T21:02:30.592Z,11.41
2023-03-21T21:05:24.856Z,11.36
2023-03-21T21:07:54.841Z,11.38
2023-03-21T21:10:28.816Z,11.34
2023-03-21T21:13:00.438Z,11.33
2023-03-21T21:15:33.513Z,11.28
2023-03-21T21:18:07.369Z,11.24
2023-03-21T21:20:40.134Z,11.14
2023-03-21T21:23:13.745Z,11.14
2023-03-21T21:25:45.341Z,11.14
2023-03-21T21:28:18.830Z,11.11
2023-03-21T21:30:55.800Z,11.09
2023-03-21T21:33:30.373Z,11.12
2023-03-21T21:36:01.864Z,11.11
2023-03-21T21:38:36.013Z,11.14
2023-03-21T21:41:09.073Z,11.11
2023-03-21T21:43:40.902Z,11.09
2023-03-21T21:46:13.294Z,11.06
2023-03-21T21:48:44.888Z,11.04
2023-03-21T21:51:25.960Z,11.02
2023-03-21T21:53:58.537Z,10.99
2023-03-21T21:56:32.653Z,10.97
2023-03-21T21:59:04.243Z,10.93
2023-03-21T22:01:38.553Z,10.87
2023-03-21T22:04:11.499Z,10.84
2023-03-21T22:06:43.267Z,10.82
2023-03-21T22:09:15.912Z,10.78
2023-03-21T22:11:47.695Z,10.72
2023-03-21T22:14:19.420Z,10.70
2023-03-21T22:16:50.945Z,10.69
2023-03-21T22:19:22.490Z,10.69
2023-03-21T22:21:58.038Z,10.65
2023-03-21T22:24:29.605Z,10.60
2023-03-21T22:27:01.259Z,10.55
2023-03-21T22:29:32.815Z,10.53
2023-03-21T22:32:04.488Z,10.55
2023-03-21T22:34:36.215Z,10.53
2023-03-21T22:37:07.728Z,10.50
2023-03-21T22:39:39.494Z,10.47
2023-03-21T22:42:11.074Z,10.41
2023-03-21T22:44:42.617Z,10.39
2023-03-21T22:47:14.141Z,10.33
2023-03-21T22:49:46.962Z,10.39
2023-03-21T22:52:18.904Z,10.34
2023-03-21T22:54:50.618Z,10.32
2023-03-21T22:57:22.225Z,10.27
2023-03-21T22:59:53.825Z,10.28
2023-03-21T23:02:25.601Z,10.20
2023-03-21T23:04:57.141Z,10.21
2023-03-21T23:07:28.610Z,10.18
2023-03-21T23:10:00.256Z,10.19
2023-03-21T23:12:32.241Z,10.15
2023-03-21T23:15:04.431Z,10.13
2023-03-21T23:17:36.205Z,10.04
2023-03-21T23:20:08.681Z,10.06
2023-03-21T23:22:40.593Z,10.06
2023-03-21T23:25:12.716Z,10.06
2023-03-21T23:27:44.919Z,10.02
2023-03-21T23:30:16.695Z,9.99
2023-03-21T23:32:48.266Z,9.99
2023-03-21T23:35:19.872Z,10.02
2023-03-21T23:37:52.507Z,9.96
2023-03-21T23:40:24.410Z,9.93
2023-03-21T23:42:56.077Z,9.91
2023-03-21T23:45:27.629Z,9.83
2023-03-21T23:47:59.188Z,9.79
2023-03-21T23:50:30.811Z,9.82
2023-03-21T23:53:02.490Z,9.75
2023-03-21T23:55:37.800Z,9.75
2023-03-21T23:58:09.344Z,9.77
